createdAt,value
2022-11-29T00:04:27.936Z,-2.83
2022-11-29T00:09:32.668Z,-2.77
2022-11-29T00:14:35.720Z,-3.24
2022-11-29T00:19:39.151Z,-3.13
2022-11-29T00:24:44.112Z,-3.19
2022-11-29T00:29:47.858Z,-3.26
2022-11-29T00:34:51.193Z,-3.12
2022-11-29T00:39:55.862Z,-3.36
2022-11-29T00:44:58.808Z,-3.32
2022-11-29T00:50:02.218Z,-3.33
2022-11-29T00:55:08.873Z,-3.06
2022-11-29T01:00:13.312Z,-3.28
2022-11-29T01:05:16.655Z,-3.51
2022-11-29T01:10:21.409Z,-3.12
2022-11-29T01:15:24.443Z,-3.37
2022-11-29T01:20:27.752Z,-3.44
2022-11-29T01:25:33.024Z,-3.14
2022-11-29T01:30:36.346Z,-2.90
2022-11-29T01:35:39.655Z,-3.24
2022-11-29T01:40:44.698Z,-3.17
2022-11-29T01:45:47.955Z,-3.06
2022-11-29T01:50:51.998Z,-3.37
2022-11-29T01:56:02.803Z,-3.16
2022-11-29T02:01:06.380Z,-3.42
2022-11-29T02:06:09.842Z,-3.27
2022-11-29T02:11:42.692Z,-3.55
2022-11-29T02:16:56.682Z,-3.63
2022-11-29T02:22:06.903Z,-3.66
2022-11-29T02:28:03.870Z,-3.85
2022-11-29T02:33:38.335Z,-3.77
2022-11-29T02:39:26.986Z,-3.69
2022-11-29T02:44:49.662Z,-3.66
2022-11-29T02:50:13.220Z,-3.62
2022-11-29T02:55:23.113Z,-3.38
2022-11-29T03:00:26.927Z,-3.43
2022-11-29T03:05:42.187Z,-3.60
2022-11-29T03:10:57.949Z,-3.38
2022-11-29T03:16:09.638Z,-3.34
2022-11-29T03:21:25.912Z,-3.91
2022-11-29T03:26:39.733Z,-3.91
2022-11-29T03:31:49.060Z,-4.00
2022-11-29T03:36:59.302Z,-4.01
2022-11-29T03:42:07.569Z,-4.13
2022-11-29T03:47:15.129Z,-3.83
2022-11-29T03:52:24.150Z,-3.96
2022-11-29T03:57:33.041Z,-3.92
2022-11-29T04:03:11.068Z,-4.09
2022-11-29T04:08:53.039Z,-3.94
2022-11-29T04:14:16.496Z,-3.93
2022-11-29T04:20:01.424Z,-4.00
2022-11-29T04:25:35.867Z,-4.01
2022-11-29T04:30:53.983Z,-3.94
2022-11-29T04:36:38.424Z,-3.93
2022-11-29T04:42:02.100Z,-3.65
2022-11-29T04:47:17.207Z,-3.66
2022-11-29T04:52:32.642Z,-3.81
2022-11-29T04:57:44.437Z,-3.81
2022-11-29T05:02:56.989Z,-4.05
2022-11-29T05:08:17.699Z,-4.01
2022-11-29T05:13:30.612Z,-4.06
2022-11-29T05:18:55.578Z,-3.82
2022-11-29T05:24:12.220Z,-3.78
2022-11-29T05:29:26.756Z,-3.94
2022-11-29T05:34:41.929Z,-3.92
2022-11-29T05:39:59.020Z,-4.02
2022-11-29T05:45:10.810Z,-4.03
2022-11-29T05:50:22.976Z,-4.10
2022-11-29T05:55:42.265Z,-4.68
2022-11-29T06:00:52.003Z,-4.23
2022-11-29T06:06:00.937Z,-4.32
2022-11-29T06:11:07.545Z,-4.25
2022-11-29T06:16:42.414Z,-3.52
2022-11-29T06:21:55.503Z,-3.10
2022-11-29T06:27:19.160Z,-2.60
2022-11-29T06:32:33.066Z,-2.71
2022-11-29T06:37:41.433Z,-3.34
2022-11-29T06:42:44.881Z,-3.47
2022-11-29T06:47:54.820Z,-3.58
2022-11-29T06:53:08.667Z,-3.64
2022-11-29T06:58:24.014Z,-3.76
2022-11-29T07:03:41.036Z,-3.55
2022-11-29T07:08:45.213Z,-3.61
2022-11-29T07:13:48.975Z,-3.74
2022-11-29T07:19:04.481Z,-3.65
2022-11-29T07:24:17.300Z,-3.53
2022-11-29T07:29:28.427Z,-3.33
2022-11-29T07:34:41.609Z,-3.46
2022-11-29T07:39:53.333Z,-3.53
2022-11-29T07:45:06.433Z,-3.62
2022-11-29T07:50:14.999Z,-3.58
2022-11-29T07:55:21.216Z,-3.57
2022-11-29T08:00:24.692Z,-3.40
2022-11-29T08:05:29.293Z,-3.24
2022-11-29T08:10:32.359Z,-3.26
2022-11-29T08:15:35.704Z,-2.94
2022-11-29T08:20:41.802Z,-3.38
2022-11-29T08:25:45.937Z,-3.11
2022-11-29T08:30:49.229Z,-2.98
2022-11-29T08:35:53.889Z,-2.67
2022-11-29T08:41:01.337Z,-2.54
2022-11-29T08:46:04.930Z,-2.48
2022-11-29T08:51:09.625Z,-2.79
2022-11-29T08:57:04.361Z,-2.88
2022-11-29T09:01:38.291Z,-2.93
2022-11-29T09:06:44.485Z,-2.87
2022-11-29T09:11:49.583Z,-2.88
2022-11-29T09:16:53.082Z,-2.91
2022-11-29T09:21:57.831Z,-2.73
2022-11-29T09:27:01.443Z,-3.04
2022-11-29T09:32:05.212Z,-2.81
2022-11-29T09:37:09.831Z,-3.24
2022-11-29T09:42:43.407Z,-2.57
2022-11-29T09:48:05.791Z,-2.46
2022-11-29T09:53:31.235Z,-1.96
2022-11-29T09:58:43.857Z,-2.35
2022-11-29T10:03:53.020Z,-2.35
2022-11-29T10:09:03.487Z,-2.65
2022-11-29T10:14:22.663Z,-2.92
2022-11-29T10:19:33.638Z,-2.98
2022-11-29T10:24:39.419Z,-3.20
2022-11-29T10:29:42.651Z,-2.85
2022-11-29T10:34:46.998Z,-2.80
2022-11-29T10:39:57.367Z,-2.86
2022-11-29T10:45:01.426Z,-3.01
2022-11-29T10:50:04.900Z,-2.95
2022-11-29T10:55:14.844Z,-3.30
2022-11-29T11:00:18.852Z,-3.23
2022-11-29T11:05:27.798Z,-2.94
2022-11-29T11:10:32.731Z,-3.09
2022-11-29T11:15:36.074Z,-3.19
2022-11-29T11:20:42.364Z,-2.94
2022-11-29T11:25:50.183Z,-2.98
2022-11-29T11:30:56.702Z,-3.06
2022-11-29T11:36:06.540Z,-3.23
2022-11-29T11:41:44.681Z,-3.30
2022-11-29T11:46:50.511Z,-3.19
2022-11-29T11:51:53.752Z,-3.63
2022-11-29T11:56:58.949Z,-3.41
2022-11-29T12:02:02.305Z,-3.59
2022-11-29T12:07:16.670Z,-3.93
2022-11-29T12:12:25.519Z,-3.63
2022-11-29T12:17:35.758Z,-3.68
2022-11-29T12:22:48.297Z,-3.67
2022-11-29T12:27:53.960Z,-3.81
2022-11-29T12:33:17.865Z,-3.96
2022-11-29T12:38:45.501Z,-3.90
2022-11-29T12:44:04.068Z,-4.08
2022-11-29T12:49:17.448Z,-4.24
2022-11-29T12:54:42.392Z,-4.20
2022-11-29T13:00:00.936Z,-4.32
2022-11-29T13:05:13.878Z,-4.49
2022-11-29T13:10:34.144Z,-4.78
2022-11-29T13:15:43.129Z,-4.84
2022-11-29T13:20:52.370Z,-4.98
2022-11-29T13:25:58.609Z,-5.25
2022-11-29T13:31:08.392Z,-5.50
2022-11-29T13:36:17.334Z,-5.66
2022-11-29T13:41:29.652Z,-5.91
2022-11-29T13:46:42.806Z,-5.96
2022-11-29T13:51:47.304Z,-6.24
2022-11-29T13:56:50.785Z,-6.24
2022-11-29T14:01:57.162Z,-6.24
2022-11-29T14:07:07.441Z,-6.33
2022-11-29T14:12:31.282Z,-6.54
2022-11-29T14:17:50.165Z,-6.59
2022-11-29T14:23:18.222Z,-6.73
2022-11-29T14:28:32.405Z,-6.87
2022-11-29T14:34:01.810Z,-6.83
2022-11-29T14:39:20.271Z,-6.96
2022-11-29T14:44:28.374Z,-7.06
2022-11-29T14:49:41.371Z,-7.13
2022-11-29T14:54:56.639Z,-7.20
2022-11-29T15:00:00.448Z,-7.18
2022-11-29T15:05:15.623Z,-7.32
2022-11-29T15:10:23.767Z,-7.20
2022-11-29T15:15:54.011Z,-7.31
2022-11-29T15:21:23.257Z,-7.21
2022-11-29T15:26:28.231Z,-7.28
2022-11-29T15:31:32.425Z,-7.35
2022-11-29T15:36:44.614Z,-7.34
2022-11-29T15:41:47.942Z,-7.44
2022-11-29T15:46:51.465Z,-7.62
2022-11-29T15:51:59.828Z,-7.63
2022-11-29T15:57:10.302Z,-7.71
2022-11-29T16:02:19.595Z,-7.76
2022-11-29T16:07:27.300Z,-7.69
2022-11-29T16:12:31.099Z,-7.66
2022-11-29T16:17:36.329Z,-7.55
2022-11-29T16:22:41.678Z,-7.50
2022-11-29T16:27:45.297Z,-7.49
2022-11-29T16:32:54.215Z,-7.54
2022-11-29T16:38:00.398Z,-7.54
2022-11-29T16:43:23.692Z,-7.67
2022-11-29T16:48:32.277Z,-7.84
2022-11-29T16:53:38.594Z,-7.77
2022-11-29T16:59:20.956Z,-7.70
2022-11-29T17:04:07.200Z,-7.74
2022-11-29T17:09:21.209Z,-7.81
2022-11-29T17:14:24.850Z,-7.85
2022-11-29T17:19:31.110Z,-7.86
2022-11-29T17:24:36.193Z,-7.83
2022-11-29T17:29:39.976Z,-7.87
2022-11-29T17:34:43.809Z,-7.89
2022-11-29T17:39:49.260Z,-8.02
2022-11-29T17:44:52.978Z,-8.00
2022-11-29T17:49:58.153Z,-8.02
2022-11-29T17:55:03.009Z,-7.98
2022-11-29T18:00:08.994Z,-7.93
2022-11-29T18:05:12.967Z,-8.00
2022-11-29T18:10:18.136Z,-8.06
2022-11-29T18:15:22.553Z,-8.11
2022-11-29T18:20:25.930Z,-8.14
2022-11-29T18:25:38.816Z,-8.08
2022-11-29T18:30:43.519Z,-8.15
2022-11-29T18:35:46.981Z,-8.13
2022-11-29T18:40:54.642Z,-8.10
2022-11-29T18:45:58.228Z,-8.18
2022-11-29T18:51:03.593Z,-8.13
2022-11-29T18:56:10.962Z,-8.21
2022-11-29T19:01:16.479Z,-8.17
2022-11-29T19:06:23.974Z,-8.20
2022-11-29T19:11:30.928Z,-8.26
2022-11-29T19:16:35.933Z,-8.33
2022-11-29T19:21:41.162Z,-8.39
2022-11-29T19:26:47.949Z,-8.46
2022-11-29T19:31:52.196Z,-8.50
2022-11-29T19:36:55.498Z,-8.52
2022-11-29T19:42:00.194Z,-8.56
2022-11-29T19:47:03.689Z,-8.60
2022-11-29T19:52:07.006Z,-8.53
2022-11-29T19:57:11.950Z,-8.55
2022-11-29T20:02:15.872Z,-8.58
2022-11-29T20:07:19.333Z,-8.66
2022-11-29T20:12:24.055Z,-8.69
2022-11-29T20:17:27.432Z,-8.71
2022-11-29T20:22:30.956Z,-8.75
2022-11-29T20:27:35.877Z,-8.78
2022-11-29T20:32:39.345Z,-8.76
2022-11-29T20:38:03.018Z,-8.69
2022-11-29T20:43:14.849Z,-8.75
2022-11-29T20:48:21.384Z,-8.79
2022-11-29T20:53:37.567Z,-8.68
2022-11-29T20:58:42.299Z,-8.76
2022-11-29T21:03:45.589Z,-8.83
2022-11-29T21:08:49.922Z,-8.80
2022-11-29T21:13:55.161Z,-8.89
2022-11-29T21:19:01.401Z,-9.00
2022-11-29T21:24:15.165Z,-8.99
2022-11-29T21:29:21.705Z,-8.96
2022-11-29T21:34:25.016Z,-8.95
2022-11-29T21:39:33.371Z,-8.93
2022-11-29T21:44:38.077Z,-8.95
2022-11-29T21:49:42.000Z,-8.93
2022-11-29T21:54:45.455Z,-9.02
2022-11-29T21:59:50.172Z,-9.07
2022-11-29T22:04:53.529Z,-9.16
2022-11-29T22:09:56.921Z,-9.24
2022-11-29T22:15:01.681Z,-9.36
2022-11-29T22:20:07.886Z,-9.44
2022-11-29T22:25:11.032Z,-9.51
2022-11-29T22:30:16.302Z,-9.46
2022-11-29T22:35:19.670Z,-9.55
2022-11-29T22:40:22.851Z,-9.52
2022-11-29T22:45:27.577Z,-9.44
2022-11-29T22:50:30.857Z,-9.42
2022-11-29T22:55:34.016Z,-9.43
2022-11-29T23:00:44.225Z,-9.39
2022-11-29T23:05:47.403Z,-9.48
2022-11-29T23:10:57.121Z,-9.44
2022-11-29T23:16:02.408Z,-9.33
2022-11-29T23:21:08.109Z,-9.29
2022-11-29T23:26:18.937Z,-9.24
2022-11-29T23:31:24.840Z,-9.17
2022-11-29T23:36:28.288Z,-9.34
2022-11-29T23:41:31.583Z,-9.42
2022-11-29T23:46:37.224Z,-9.43
2022-11-29T23:51:40.523Z,-9.37
2022-11-29T23:56:43.842Z,-9.50
